createdAt,value
2023-12-02T00:00:11.141Z,0.83
2023-12-02T00:01:11.073Z,0.81
2023-12-02T00:02:11.106Z,0.87
2023-12-02T00:03:11.168Z,0.89
2023-12-02T00:04:11.137Z,0.89
2023-12-02T00:05:11.138Z,0.86
2023-12-02T00:06:11.104Z,0.86
2023-12-02T00:07:11.091Z,0.84
2023-12-02T00:08:11.072Z,0.83
2023-12-02T00:09:11.115Z,0.88
2023-12-02T00:10:11.066Z,0.92
2023-12-02T00:11:11.086Z,0.94
2023-12-02T00:12:11.093Z,0.91
2023-12-02T00:13:11.070Z,0.82
2023-12-02T00:14:11.110Z,0.77
2023-12-02T00:15:11.120Z,0.81
2023-12-02T00:16:11.093Z,0.85
2023-12-02T00:17:11.081Z,0.82
2023-12-02T00:18:11.159Z,0.82
2023-12-02T00:19:11.161Z,0.79
2023-12-02T00:20:11.076Z,0.76
2023-12-02T00:21:11.156Z,0.73
2023-12-02T00:22:11.081Z,0.75
2023-12-02T00:23:11.079Z,0.75
2023-12-02T00:24:11.110Z,0.65
2023-12-02T00:25:11.068Z,0.65
2023-12-02T00:26:11.079Z,0.67
2023-12-02T00:27:11.115Z,0.67
2023-12-02T00:28:11.100Z,0.55
2023-12-02T00:29:11.075Z,0.48
2023-12-02T00:30:11.088Z,0.51
2023-12-02T00:31:11.079Z,0.58
2023-12-02T00:32:11.064Z,0.60
2023-12-02T00:33:11.173Z,0.60
2023-12-02T00:34:11.150Z,0.53
2023-12-02T00:35:11.063Z,0.55
2023-12-02T00:36:11.105Z,0.61
2023-12-02T00:37:11.064Z,0.65
2023-12-02T00:38:11.068Z,0.66
2023-12-02T00:39:11.072Z,0.71
2023-12-02T00:40:12.067Z,0.70
2023-12-02T00:41:13.083Z,0.72
2023-12-02T00:42:11.143Z,0.74
2023-12-02T00:43:11.068Z,0.77
2023-12-02T00:44:11.071Z,0.79
2023-12-02T00:45:11.148Z,0.82
2023-12-02T00:46:11.068Z,0.84
2023-12-02T00:47:11.061Z,0.78
2023-12-02T00:48:11.141Z,0.80
2023-12-02T00:49:11.206Z,0.80
2023-12-02T00:50:11.067Z,0.80
2023-12-02T00:51:11.159Z,0.78
2023-12-02T00:52:11.063Z,0.80
2023-12-02T00:53:11.069Z,0.78
2023-12-02T00:54:11.134Z,0.81
2023-12-02T00:55:11.065Z,0.77
2023-12-02T00:56:11.070Z,0.72
2023-12-02T00:57:11.095Z,0.70
2023-12-02T00:58:11.057Z,0.71
2023-12-02T00:59:11.069Z,0.73
2023-12-02T01:00:11.116Z,0.70
2023-12-02T01:01:11.092Z,0.72
2023-12-02T01:02:11.124Z,0.71
2023-12-02T01:03:11.130Z,0.68
2023-12-02T01:04:11.099Z,0.67
2023-12-02T01:05:11.124Z,0.65
2023-12-02T01:06:11.106Z,0.64
2023-12-02T01:07:11.077Z,0.69
2023-12-02T01:08:11.067Z,0.69
2023-12-02T01:09:11.105Z,0.64
2023-12-02T01:10:11.071Z,0.64
2023-12-02T01:11:11.067Z,0.65
2023-12-02T01:12:11.090Z,0.67
2023-12-02T01:13:11.068Z,0.71
2023-12-02T01:14:11.067Z,0.68
2023-12-02T01:15:11.125Z,0.69
2023-12-02T01:16:11.064Z,0.69
2023-12-02T01:17:11.070Z,0.73
2023-12-02T01:18:11.169Z,0.74
2023-12-02T01:19:11.089Z,0.79
2023-12-02T01:20:11.079Z,0.78
2023-12-02T01:21:11.078Z,0.77
2023-12-02T01:22:11.067Z,0.78
2023-12-02T01:23:11.070Z,0.81
2023-12-02T01:24:11.096Z,0.81
2023-12-02T01:25:11.071Z,0.83
2023-12-02T01:26:11.074Z,0.78
2023-12-02T01:27:11.089Z,0.78
2023-12-02T01:28:11.065Z,0.75
2023-12-02T01:29:11.071Z,0.76
2023-12-02T01:30:11.122Z,0.78
2023-12-02T01:31:11.066Z,0.82
2023-12-02T01:32:11.076Z,0.82
2023-12-02T01:33:11.126Z,0.85
2023-12-02T01:34:11.124Z,0.81
2023-12-02T01:35:11.073Z,0.82
2023-12-02T01:36:13.113Z,0.81
2023-12-02T01:37:11.066Z,0.85
2023-12-02T01:38:11.067Z,0.89
2023-12-02T01:39:11.081Z,0.90
2023-12-02T01:40:11.069Z,0.92
2023-12-02T01:41:11.079Z,0.94
2023-12-02T01:42:11.123Z,0.95
2023-12-02T01:43:15.063Z,0.99
2023-12-02T01:44:11.065Z,1.00
2023-12-02T01:45:11.100Z,1.02
2023-12-02T01:46:11.062Z,1.02
2023-12-02T01:47:11.074Z,1.00
2023-12-02T01:48:11.188Z,1.02
2023-12-02T01:49:11.180Z,1.00
2023-12-02T01:50:11.107Z,1.02
2023-12-02T01:51:11.109Z,0.98
2023-12-02T01:52:11.074Z,0.99
2023-12-02T01:53:11.075Z,0.96
2023-12-02T01:54:11.118Z,0.94
2023-12-02T01:55:11.063Z,0.97
2023-12-02T01:56:11.097Z,0.97
2023-12-02T01:57:11.079Z,0.89
2023-12-02T01:58:11.081Z,0.88
2023-12-02T01:59:12.076Z,0.88
2023-12-02T02:00:11.262Z,0.87
2023-12-02T02:01:11.068Z,0.89
2023-12-02T02:02:11.148Z,0.88
2023-12-02T02:03:11.084Z,0.90
2023-12-02T02:04:11.105Z,0.90
2023-12-02T02:05:11.163Z,0.88
2023-12-02T02:06:13.086Z,0.86
2023-12-02T02:07:11.064Z,0.81
2023-12-02T02:08:11.078Z,0.82
2023-12-02T02:09:11.092Z,0.78
2023-12-02T02:10:11.066Z,0.72
2023-12-02T02:11:11.076Z,0.72
2023-12-02T02:12:11.101Z,0.74
2023-12-02T02:13:11.087Z,0.73
2023-12-02T02:14:11.076Z,0.65
2023-12-02T02:15:11.169Z,0.62
2023-12-02T02:16:11.069Z,0.61
2023-12-02T02:17:11.076Z,0.57
2023-12-02T02:18:11.127Z,0.55
2023-12-02T02:19:11.119Z,0.57
2023-12-02T02:20:11.081Z,0.57
2023-12-02T02:21:11.087Z,0.52
2023-12-02T02:22:11.061Z,0.47
2023-12-02T02:23:11.072Z,0.45
2023-12-02T02:24:11.092Z,0.40
2023-12-02T02:25:11.070Z,0.39
2023-12-02T02:26:11.075Z,0.40
2023-12-02T02:27:11.126Z,0.36
2023-12-02T02:28:11.067Z,0.30
2023-12-02T02:29:11.076Z,0.28
2023-12-02T02:30:11.072Z,0.25
2023-12-02T02:31:11.071Z,0.26
2023-12-02T02:32:11.076Z,0.28
2023-12-02T02:33:11.194Z,0.25
2023-12-02T02:34:11.098Z,0.24
2023-12-02T02:35:11.086Z,0.24
2023-12-02T02:36:11.074Z,0.27
2023-12-02T02:37:11.071Z,0.27
2023-12-02T02:38:11.077Z,0.26
2023-12-02T02:39:12.200Z,0.17
2023-12-02T02:40:11.074Z,0.10
2023-12-02T02:41:11.084Z,0.08
2023-12-02T02:42:13.114Z,0.09
2023-12-02T02:43:11.072Z,-0.01
2023-12-02T02:44:11.119Z,-0.07
2023-12-02T02:45:11.079Z,-0.09
2023-12-02T02:46:11.069Z,-0.10
2023-12-02T02:47:11.073Z,-0.11
2023-12-02T02:48:11.169Z,-0.08
2023-12-02T02:49:11.129Z,-0.17
2023-12-02T02:50:11.075Z,-0.20
2023-12-02T02:51:11.081Z,-0.23
2023-12-02T02:52:11.077Z,-0.27
2023-12-02T02:53:11.075Z,-0.26
2023-12-02T02:54:11.087Z,-0.28
2023-12-02T02:55:11.074Z,-0.32
2023-12-02T02:56:11.086Z,-0.28
2023-12-02T02:57:11.168Z,-0.29
2023-12-02T02:58:11.070Z,-0.31
2023-12-02T02:59:11.073Z,-0.27
2023-12-02T03:00:14.120Z,-0.28
2023-12-02T03:01:11.067Z,-0.26
2023-12-02T03:02:11.100Z,-0.23
2023-12-02T03:03:11.096Z,-0.23
2023-12-02T03:04:11.092Z,-0.20
2023-12-02T03:05:11.076Z,-0.27
2023-12-02T03:06:11.089Z,-0.22
2023-12-02T03:07:11.116Z,-0.20
2023-12-02T03:08:11.086Z,-0.18
2023-12-02T03:09:16.082Z,-0.17
2023-12-02T03:10:11.086Z,-0.17
2023-12-02T03:11:11.072Z,-0.14
2023-12-02T03:12:11.086Z,-0.13
2023-12-02T03:13:11.069Z,-0.10
2023-12-02T03:14:11.077Z,-0.13
2023-12-02T03:15:11.087Z,-0.10
2023-12-02T03:16:11.074Z,-0.07
2023-12-02T03:17:11.081Z,-0.11
2023-12-02T03:18:11.245Z,-0.09
2023-12-02T03:19:11.200Z,-0.09
2023-12-02T03:20:11.084Z,-0.11
2023-12-02T03:21:11.097Z,-0.10
2023-12-02T03:22:11.075Z,-0.15
2023-12-02T03:23:11.089Z,-0.15
2023-12-02T03:24:11.075Z,-0.16
2023-12-02T03:25:11.067Z,-0.15
2023-12-02T03:26:11.075Z,-0.17
2023-12-02T03:27:11.105Z,-0.26
2023-12-02T03:28:11.066Z,-0.28
2023-12-02T03:29:11.077Z,-0.28
2023-12-02T03:30:11.152Z,-0.27
2023-12-02T03:31:11.068Z,-0.36
2023-12-02T03:32:11.074Z,-0.39
2023-12-02T03:33:11.185Z,-0.39
2023-12-02T03:34:11.082Z,-0.39
2023-12-02T03:35:12.059Z,-0.41
2023-12-02T03:36:11.095Z,-0.38
2023-12-02T03:37:11.062Z,-0.41
2023-12-02T03:38:11.061Z,-0.43
2023-12-02T03:39:11.073Z,-0.43
2023-12-02T03:40:11.064Z,-0.46
2023-12-02T03:41:11.064Z,-0.44
2023-12-02T03:42:11.105Z,-0.44
2023-12-02T03:43:11.068Z,-0.46
2023-12-02T03:44:11.085Z,-0.45
2023-12-02T03:45:11.259Z,-0.45
2023-12-02T03:46:11.066Z,-0.42
2023-12-02T03:47:11.065Z,-0.42
2023-12-02T03:48:11.164Z,-0.41
2023-12-02T03:49:11.228Z,-0.44
2023-12-02T03:50:11.065Z,-0.43
2023-12-02T03:51:11.094Z,-0.43
2023-12-02T03:52:11.065Z,-0.46
2023-12-02T03:53:11.105Z,-0.47
2023-12-02T03:54:11.104Z,-0.48
2023-12-02T03:55:11.090Z,-0.48
2023-12-02T03:56:11.068Z,-0.51
2023-12-02T03:57:11.085Z,-0.50
2023-12-02T03:58:11.066Z,-0.50
2023-12-02T03:59:11.067Z,-0.55
2023-12-02T04:00:16.106Z,-0.55
2023-12-02T04:01:11.070Z,-0.55
2023-12-02T04:02:11.127Z,-0.57
2023-12-02T04:03:11.096Z,-0.58
2023-12-02T04:04:11.112Z,-0.57
2023-12-02T04:05:11.069Z,-0.57
2023-12-02T04:06:11.081Z,-0.57
2023-12-02T04:07:11.149Z,-0.55
2023-12-02T04:08:11.090Z,-0.54
2023-12-02T04:09:11.214Z,-0.55
2023-12-02T04:10:11.068Z,-0.53
2023-12-02T04:11:11.072Z,-0.51
2023-12-02T04:12:11.083Z,-0.47
2023-12-02T04:13:13.066Z,-0.46
2023-12-02T04:14:11.075Z,-0.49
2023-12-02T04:15:11.132Z,-0.47
2023-12-02T04:16:11.094Z,-0.49
2023-12-02T04:17:11.078Z,-0.47
2023-12-02T04:18:11.116Z,-0.50
2023-12-02T04:19:11.161Z,-0.61
2023-12-02T04:20:13.062Z,-0.66
2023-12-02T04:21:11.095Z,-0.67
2023-12-02T04:22:11.074Z,-0.69
2023-12-02T04:23:11.067Z,-0.75
2023-12-02T04:24:11.107Z,-0.70
2023-12-02T04:25:11.072Z,-0.70
2023-12-02T04:26:11.064Z,-0.76
2023-12-02T04:27:11.091Z,-0.77
2023-12-02T04:28:11.072Z,-0.77
2023-12-02T04:29:11.083Z,-0.87
2023-12-02T04:30:11.120Z,-0.82
2023-12-02T04:31:11.066Z,-0.82
2023-12-02T04:32:11.073Z,-0.83
2023-12-02T04:33:11.229Z,-0.93
2023-12-02T04:34:11.136Z,-0.88
2023-12-02T04:35:11.071Z,-0.92
2023-12-02T04:36:11.114Z,-0.90
2023-12-02T04:37:11.075Z,-0.88
2023-12-02T04:38:11.068Z,-0.84
2023-12-02T04:39:11.123Z,-0.83
2023-12-02T04:40:14.079Z,-0.82
2023-12-02T04:41:11.065Z,-0.85
2023-12-02T04:42:11.090Z,-0.82
2023-12-02T04:43:11.077Z,-0.78
2023-12-02T04:44:11.067Z,-0.82
2023-12-02T04:45:11.107Z,-0.79
2023-12-02T04:46:11.072Z,-0.77
2023-12-02T04:47:11.072Z,-0.83
2023-12-02T04:48:11.140Z,-0.80
2023-12-02T04:49:11.099Z,-0.81
2023-12-02T04:50:11.074Z,-0.78
2023-12-02T04:51:11.080Z,-0.79
2023-12-02T04:52:11.073Z,-0.77
2023-12-02T04:53:11.067Z,-0.90
2023-12-02T04:54:11.115Z,-0.87
2023-12-02T04:55:11.107Z,-0.84
2023-12-02T04:56:11.076Z,-0.86
2023-12-02T04:57:11.134Z,-0.89
2023-12-02T04:58:11.083Z,-0.85
2023-12-02T04:59:11.093Z,-0.83
2023-12-02T05:00:17.091Z,-0.83
2023-12-02T05:01:11.064Z,-0.87
2023-12-02T05:02:11.119Z,-0.88
2023-12-02T05:03:11.144Z,-0.93
2023-12-02T05:04:11.142Z,-0.93
2023-12-02T05:05:11.077Z,-0.98
2023-12-02T05:06:13.163Z,-0.99
2023-12-02T05:07:11.078Z,-1.06
2023-12-02T05:08:11.067Z,-1.10
2023-12-02T05:09:11.126Z,-1.12
2023-12-02T05:10:11.064Z,-1.12
2023-12-02T05:11:15.067Z,-1.09
2023-12-02T05:12:11.111Z,-1.16
2023-12-02T05:13:11.079Z,-1.11
2023-12-02T05:14:11.103Z,-1.06
2023-12-02T05:15:11.128Z,-1.06
2023-12-02T05:16:11.069Z,-1.02
2023-12-02T05:17:11.063Z,-1.02
2023-12-02T05:18:11.163Z,-1.02
2023-12-02T05:19:11.131Z,-1.02
2023-12-02T05:20:11.074Z,-1.01
2023-12-02T05:21:11.132Z,-1.04
2023-12-02T05:22:11.090Z,-1.00
2023-12-02T05:23:11.065Z,-0.98
2023-12-02T05:24:11.091Z,-0.97
2023-12-02T05:25:11.066Z,-0.95
2023-12-02T05:26:11.069Z,-0.99
2023-12-02T05:27:11.095Z,-0.98
2023-12-02T05:28:11.071Z,-0.92
2023-12-02T05:29:11.069Z,-0.89
2023-12-02T05:30:11.098Z,-0.84
2023-12-02T05:31:11.075Z,-0.85
2023-12-02T05:32:11.067Z,-0.80
2023-12-02T05:33:11.154Z,-0.79
2023-12-02T05:34:11.097Z,-0.80
2023-12-02T05:35:11.096Z,-0.77
2023-12-02T05:36:11.138Z,-0.74
2023-12-02T05:37:11.072Z,-0.72
2023-12-02T05:38:11.068Z,-0.79
2023-12-02T05:39:11.093Z,-0.83
2023-12-02T05:40:12.075Z,-0.89
2023-12-02T05:41:11.067Z,-0.91
2023-12-02T05:42:11.108Z,-0.96
2023-12-02T05:43:11.080Z,-0.92
2023-12-02T05:44:11.073Z,-0.89
2023-12-02T05:45:11.085Z,-0.92
2023-12-02T05:46:14.106Z,-0.91
2023-12-02T05:47:11.065Z,-0.88
2023-12-02T05:48:11.217Z,-0.93
2023-12-02T05:49:11.146Z,-0.93
2023-12-02T05:50:11.073Z,-0.93
2023-12-02T05:51:11.138Z,-0.95
2023-12-02T05:52:11.109Z,-0.93
2023-12-02T05:53:11.080Z,-0.97
2023-12-02T05:54:12.108Z,-0.95
2023-12-02T05:55:11.388Z,-0.95
2023-12-02T05:56:11.081Z,-0.98
2023-12-02T05:57:11.165Z,-1.04
2023-12-02T05:58:11.082Z,-1.01
2023-12-02T05:59:11.073Z,-0.97
2023-12-02T06:00:11.104Z,-0.94
2023-12-02T06:01:11.072Z,-0.95
2023-12-02T06:02:11.103Z,-0.93
2023-12-02T06:03:11.162Z,-0.98
2023-12-02T06:04:11.222Z,-1.04
2023-12-02T06:05:11.098Z,-1.10
2023-12-02T06:06:12.090Z,-1.06
2023-12-02T06:07:11.071Z,-1.01
2023-12-02T06:08:11.078Z,-0.97
2023-12-02T06:09:11.096Z,-0.97
2023-12-02T06:10:12.084Z,-0.96
2023-12-02T06:11:11.080Z,-0.95
2023-12-02T06:12:11.105Z,-0.98
2023-12-02T06:13:11.067Z,-1.00
2023-12-02T06:14:13.083Z,-1.01
2023-12-02T06:15:11.084Z,-0.98
2023-12-02T06:16:11.079Z,-0.96
2023-12-02T06:17:11.076Z,-1.02
2023-12-02T06:18:11.204Z,-1.00
2023-12-02T06:19:11.213Z,-1.07
2023-12-02T06:20:11.070Z,-1.09
2023-12-02T06:21:11.096Z,-1.06
2023-12-02T06:22:11.084Z,-1.17
2023-12-02T06:23:11.071Z,-1.14
2023-12-02T06:24:11.166Z,-1.19
2023-12-02T06:25:11.388Z,-1.14
2023-12-02T06:26:11.074Z,-1.11
2023-12-02T06:27:11.119Z,-1.07
2023-12-02T06:28:11.076Z,-1.05
2023-12-02T06:29:11.080Z,-1.04
2023-12-02T06:30:13.868Z,-1.00
2023-12-02T06:31:15.082Z,-1.00
2023-12-02T06:32:11.062Z,-1.04
2023-12-02T06:33:11.185Z,-1.03
2023-12-02T06:34:11.094Z,-1.06
2023-12-02T06:35:11.068Z,-1.02
2023-12-02T06:36:11.099Z,-1.01
2023-12-02T06:37:11.065Z,-0.99
2023-12-02T06:38:11.065Z,-1.02
2023-12-02T06:39:11.095Z,-1.04
2023-12-02T06:40:11.064Z,-1.10
2023-12-02T06:41:11.062Z,-1.13
2023-12-02T06:42:11.111Z,-1.20
2023-12-02T06:43:11.065Z,-1.14
2023-12-02T06:44:11.065Z,-1.12
2023-12-02T06:45:11.090Z,-1.12
2023-12-02T06:46:15.063Z,-1.10
2023-12-02T06:47:11.059Z,-1.07
2023-12-02T06:48:11.151Z,-1.11
2023-12-02T06:49:11.181Z,-1.12
2023-12-02T06:50:11.101Z,-1.13
2023-12-02T06:51:11.289Z,-1.14
2023-12-02T06:52:11.065Z,-1.11
2023-12-02T06:53:11.070Z,-1.12
2023-12-02T06:54:11.121Z,-1.16
2023-12-02T06:56:20.059Z,-1.21
2023-12-02T06:57:11.102Z,-1.27
2023-12-02T06:58:11.072Z,-1.24
2023-12-02T06:59:11.062Z,-1.27
2023-12-02T07:00:11.089Z,-1.32
2023-12-02T07:01:11.072Z,-1.26
2023-12-02T07:02:11.113Z,-1.32
2023-12-02T07:03:11.092Z,-1.35
2023-12-02T07:04:11.138Z,-1.40
2023-12-02T07:05:11.066Z,-1.40
2023-12-02T07:06:11.138Z,-1.40
2023-12-02T07:07:11.287Z,-1.38
2023-12-02T07:08:11.074Z,-1.37
2023-12-02T07:09:11.080Z,-1.36
2023-12-02T07:10:11.082Z,-1.38
2023-12-02T07:11:11.080Z,-1.36
2023-12-02T07:12:11.107Z,-1.40
2023-12-02T07:13:11.068Z,-1.39
2023-12-02T07:14:11.065Z,-1.42
2023-12-02T07:15:11.111Z,-1.42
2023-12-02T07:16:11.066Z,-1.42
2023-12-02T07:17:11.063Z,-1.41
2023-12-02T07:18:11.156Z,-1.40
2023-12-02T07:19:11.186Z,-1.43
2023-12-02T07:20:11.075Z,-1.53
2023-12-02T07:21:11.119Z,-1.57
2023-12-02T07:22:11.065Z,-1.55
2023-12-02T07:23:11.063Z,-1.50
2023-12-02T07:24:11.090Z,-1.54
2023-12-02T07:25:11.070Z,-1.59
2023-12-02T07:26:11.061Z,-1.65
2023-12-02T07:27:11.116Z,-1.64
2023-12-02T07:28:11.066Z,-1.67
2023-12-02T07:29:11.079Z,-1.65
2023-12-02T07:31:15.080Z,-1.63
2023-12-02T07:32:11.080Z,-1.64
2023-12-02T07:33:11.069Z,-1.69
2023-12-02T07:34:11.080Z,-1.68
2023-12-02T07:35:11.063Z,-1.75
2023-12-02T07:36:11.064Z,-1.83
2023-12-02T07:37:11.063Z,-1.84
2023-12-02T07:38:11.065Z,-1.84
2023-12-02T07:39:11.077Z,-1.81
2023-12-02T07:40:11.074Z,-1.84
2023-12-02T07:41:13.064Z,-1.85
2023-12-02T07:42:11.073Z,-1.78
2023-12-02T07:43:11.062Z,-1.76
2023-12-02T07:44:11.063Z,-1.77
2023-12-02T07:45:11.076Z,-1.73
2023-12-02T07:46:11.070Z,-1.71
2023-12-02T07:47:11.194Z,-1.70
2023-12-02T07:48:11.114Z,-1.73
2023-12-02T07:49:11.065Z,-1.80
2023-12-02T07:50:11.081Z,-1.84
2023-12-02T07:51:11.073Z,-1.87
2023-12-02T07:52:11.073Z,-1.80
2023-12-02T07:53:11.139Z,-1.85
2023-12-02T07:54:11.070Z,-1.83
2023-12-02T07:55:11.065Z,-1.82
2023-12-02T07:56:11.089Z,-1.88
2023-12-02T07:57:11.072Z,-1.87
2023-12-02T07:58:11.060Z,-1.82
2023-12-02T07:59:11.065Z,-1.82
2023-12-02T08:00:11.072Z,-1.84
2023-12-02T08:01:11.072Z,-1.83
2023-12-02T08:02:11.221Z,-1.90
2023-12-02T08:03:11.069Z,-1.91
2023-12-02T08:04:11.135Z,-1.89
2023-12-02T08:06:11.073Z,-1.87
2023-12-02T08:07:11.065Z,-1.83
2023-12-02T08:08:11.066Z,-1.80
2023-12-02T08:09:11.064Z,-1.81
2023-12-02T08:10:11.073Z,-1.82
2023-12-02T08:11:11.065Z,-1.82
2023-12-02T08:12:11.083Z,-1.80
2023-12-02T08:13:11.073Z,-1.85
2023-12-02T08:14:11.099Z,-1.90
2023-12-02T08:15:11.069Z,-1.88
2023-12-02T08:16:11.085Z,-1.90
2023-12-02T08:17:11.099Z,-1.94
2023-12-02T08:18:11.070Z,-1.94
2023-12-02T08:19:11.076Z,-1.89
2023-12-02T08:20:11.194Z,-1.85
2023-12-02T08:21:11.075Z,-1.84
2023-12-02T08:22:11.074Z,-1.81
2023-12-02T08:23:11.070Z,-1.80
2023-12-02T08:24:11.062Z,-1.76
2023-12-02T08:25:11.096Z,-1.73
2023-12-02T08:26:11.084Z,-1.72
2023-12-02T08:27:11.083Z,-1.70
2023-12-02T08:28:11.082Z,-1.67
2023-12-02T08:29:11.086Z,-1.69
2023-12-02T08:30:12.064Z,-1.76
2023-12-02T08:31:11.069Z,-1.73
2023-12-02T08:32:11.073Z,-1.67
2023-12-02T08:33:11.066Z,-1.67
2023-12-02T08:34:15.736Z,-1.66
2023-12-02T08:35:13.530Z,-1.67
2023-12-02T08:36:11.064Z,-1.63
2023-12-02T08:37:11.077Z,-1.64
2023-12-02T08:38:11.074Z,-1.64
2023-12-02T08:39:11.064Z,-1.62
2023-12-02T08:40:11.075Z,-1.61
2023-12-02T08:41:11.105Z,-1.61
2023-12-02T08:42:11.075Z,-1.62
2023-12-02T08:43:11.068Z,-1.64
2023-12-02T08:44:14.478Z,-1.62
2023-12-02T08:45:11.064Z,-1.62
2023-12-02T08:46:15.078Z,-1.65
2023-12-02T08:47:11.099Z,-1.60
2023-12-02T08:48:11.191Z,-1.58
2023-12-02T08:49:11.079Z,-1.57
2023-12-02T08:50:11.151Z,-1.57
2023-12-02T08:51:11.068Z,-1.58
2023-12-02T08:52:11.068Z,-1.58
2023-12-02T08:53:11.154Z,-1.57
2023-12-02T08:54:11.068Z,-1.55
2023-12-02T08:55:14.208Z,-1.57
2023-12-02T08:56:11.147Z,-1.55
2023-12-02T08:57:11.086Z,-1.49
2023-12-02T08:58:11.068Z,-1.44
2023-12-02T08:59:11.140Z,-1.43
2023-12-02T09:00:11.175Z,-1.40
2023-12-02T09:01:11.068Z,-1.37
2023-12-02T09:02:11.262Z,-1.32
2023-12-02T09:03:11.063Z,-1.28
2023-12-02T09:04:11.117Z,-1.25
2023-12-02T09:05:11.104Z,-1.21
2023-12-02T09:06:11.072Z,-1.19
2023-12-02T09:07:11.089Z,-1.21
2023-12-02T09:08:11.186Z,-1.32
2023-12-02T09:09:11.065Z,-1.29
2023-12-02T09:10:11.074Z,-1.28
2023-12-02T09:11:11.200Z,-1.29
2023-12-02T09:12:11.086Z,-1.29
2023-12-02T09:13:19.068Z,-1.25
2023-12-02T09:14:11.128Z,-1.25
2023-12-02T09:15:15.076Z,-1.24
2023-12-02T09:16:13.074Z,-1.24
2023-12-02T09:17:21.501Z,-1.20
2023-12-02T09:18:15.168Z,-1.23
2023-12-02T09:19:21.070Z,-1.25
2023-12-02T09:20:19.072Z,-1.23
2023-12-02T09:21:19.070Z,-1.20
2023-12-02T09:22:19.073Z,-1.21
2023-12-02T09:23:11.128Z,-1.27
2023-12-02T09:24:19.071Z,-1.27
2023-12-02T09:25:14.073Z,-1.34
2023-12-02T09:26:19.119Z,-1.33
2023-12-02T09:27:16.069Z,-1.32
2023-12-02T09:28:14.067Z,-1.35
2023-12-02T09:29:11.132Z,-1.34
2023-12-02T09:30:11.068Z,-1.31
2023-12-02T09:31:11.471Z,-1.29
2023-12-02T09:32:19.071Z,-1.23
2023-12-02T09:33:11.119Z,-1.24
2023-12-02T09:34:19.066Z,-1.26
2023-12-02T09:35:11.201Z,-1.28
2023-12-02T09:36:15.068Z,-1.25
2023-12-02T09:37:19.064Z,-1.20
2023-12-02T09:38:11.105Z,-1.14
2023-12-02T09:39:21.063Z,-1.11
2023-12-02T09:40:21.068Z,-1.05
2023-12-02T09:41:19.076Z,-1.09
2023-12-02T09:42:11.063Z,-1.10
2023-12-02T09:43:21.070Z,-1.09
2023-12-02T09:44:19.069Z,-1.03
2023-12-02T09:45:11.067Z,-1.08
2023-12-02T09:46:21.064Z,-1.02
2023-12-02T09:47:18.064Z,-1.05
2023-12-02T09:48:19.096Z,-0.98
2023-12-02T09:49:21.099Z,-0.94
2023-12-02T09:50:12.206Z,-0.91
2023-12-02T09:51:19.070Z,-1.00
2023-12-02T09:52:21.062Z,-0.97
2023-12-02T09:53:19.067Z,-1.00
2023-12-02T09:54:19.073Z,-0.98
2023-12-02T09:55:17.077Z,-0.94
2023-12-02T09:56:21.681Z,-0.87
2023-12-02T09:57:21.071Z,-0.82
2023-12-02T09:58:19.065Z,-0.79
2023-12-02T09:59:15.076Z,-0.82
2023-12-02T10:00:19.064Z,-0.82
2023-12-02T10:01:16.064Z,-0.81
2023-12-02T10:02:20.924Z,-0.79
2023-12-02T10:03:19.070Z,-0.77
2023-12-02T10:04:21.138Z,-0.72
2023-12-02T10:05:13.171Z,-0.65
2023-12-02T10:06:23.098Z,-0.63
2023-12-02T10:07:21.073Z,-0.58
2023-12-02T10:08:23.329Z,-0.56
2023-12-02T10:09:22.063Z,-0.57
2023-12-02T10:10:12.065Z,-0.61
2023-12-02T10:11:14.073Z,-0.62
2023-12-02T10:12:21.078Z,-0.68
2023-12-02T10:13:19.065Z,-0.71
2023-12-02T10:14:15.115Z,-0.66
2023-12-02T10:15:12.078Z,-0.68
2023-12-02T10:16:14.152Z,-0.69
2023-12-02T10:17:11.179Z,-0.70
2023-12-02T10:18:15.198Z,-0.67
2023-12-02T10:19:13.069Z,-0.61
2023-12-02T10:20:14.465Z,-0.61
2023-12-02T10:21:13.067Z,-0.56
2023-12-02T10:22:12.083Z,-0.54
2023-12-02T10:23:17.063Z,-0.56
2023-12-02T10:24:11.067Z,-0.47
2023-12-02T10:25:14.066Z,-0.38
2023-12-02T10:26:16.205Z,-0.36
2023-12-02T10:27:13.082Z,-0.37
2023-12-02T10:28:21.066Z,-0.37
2023-12-02T10:29:21.080Z,-0.28
2023-12-02T10:30:15.089Z,-0.24
2023-12-02T10:31:17.069Z,-0.28
2023-12-02T10:32:21.143Z,-0.20
2023-12-02T10:33:21.071Z,-0.22
2023-12-02T10:34:19.126Z,-0.19
2023-12-02T10:35:18.159Z,-0.18
2023-12-02T10:36:13.114Z,-0.14
2023-12-02T10:37:11.392Z,-0.21
2023-12-02T10:38:18.076Z,-0.19
2023-12-02T10:39:16.061Z,-0.21
2023-12-02T10:40:11.083Z,-0.24
2023-12-02T10:41:19.072Z,-0.36
2023-12-02T10:42:15.068Z,-0.33
2023-12-02T10:43:19.064Z,-0.31
2023-12-02T10:44:11.081Z,-0.25
2023-12-02T10:45:12.083Z,-0.29
2023-12-02T10:46:11.071Z,-0.24
2023-12-02T10:47:11.130Z,-0.22
2023-12-02T10:48:11.105Z,-0.25
2023-12-02T10:49:11.116Z,-0.29
2023-12-02T10:50:11.091Z,-0.37
2023-12-02T10:51:11.089Z,-0.38
2023-12-02T10:53:12.088Z,-0.31
2023-12-02T10:54:11.071Z,-0.30
2023-12-02T10:55:11.078Z,-0.25
2023-12-02T10:56:18.069Z,-0.21
2023-12-02T10:57:11.071Z,-0.20
2023-12-02T10:58:11.065Z,-0.22
2023-12-02T10:59:11.070Z,-0.19
2023-12-02T11:00:16.117Z,-0.18
2023-12-02T11:01:11.138Z,-0.16
2023-12-02T11:02:19.066Z,-0.13
2023-12-02T11:03:21.125Z,-0.14
2023-12-02T11:04:23.099Z,-0.19
2023-12-02T11:05:19.101Z,-0.11
2023-12-02T11:06:19.252Z,-0.17
2023-12-02T11:07:11.122Z,-0.15
2023-12-02T11:08:15.069Z,-0.06
2023-12-02T11:09:17.076Z,-0.04
2023-12-02T11:10:12.109Z,0.00
2023-12-02T11:11:15.078Z,0.01
2023-12-02T11:12:21.192Z,0.08
2023-12-02T11:13:20.066Z,0.09
2023-12-02T11:14:15.086Z,0.13
2023-12-02T11:15:13.074Z,0.07
2023-12-02T11:16:19.078Z,0.13
2023-12-02T11:17:23.073Z,0.12
2023-12-02T11:18:19.124Z,0.08
2023-12-02T11:19:19.221Z,0.15
2023-12-02T11:20:25.070Z,0.10
2023-12-02T11:21:16.107Z,0.10
2023-12-02T11:22:19.075Z,0.06
2023-12-02T11:23:19.070Z,0.12
2023-12-02T11:24:17.086Z,0.14
2023-12-02T11:25:21.070Z,0.10
2023-12-02T11:26:19.063Z,0.15
2023-12-02T11:27:19.174Z,0.16
2023-12-02T11:28:19.069Z,0.21
2023-12-02T11:30:19.079Z,0.29
2023-12-02T11:31:21.067Z,0.24
2023-12-02T11:32:19.082Z,0.27
2023-12-02T11:33:19.233Z,0.24
2023-12-02T11:34:21.165Z,0.26
2023-12-02T11:35:19.066Z,0.25
2023-12-02T11:36:19.107Z,0.23
2023-12-02T11:37:19.083Z,0.23
2023-12-02T11:38:18.075Z,0.25
2023-12-02T11:39:18.102Z,0.27
2023-12-02T11:40:19.093Z,0.31
2023-12-02T11:41:19.078Z,0.26
2023-12-02T11:42:17.105Z,0.30
2023-12-02T11:43:21.071Z,0.35
2023-12-02T11:44:19.085Z,0.44
2023-12-02T11:45:16.187Z,0.41
2023-12-02T11:46:15.072Z,0.44
2023-12-02T11:47:21.069Z,0.50
2023-12-02T11:48:19.349Z,0.54
2023-12-02T11:49:21.206Z,0.54
2023-12-02T11:50:19.090Z,0.50
2023-12-02T11:51:21.127Z,0.53
2023-12-02T11:52:19.081Z,0.50
2023-12-02T11:53:19.070Z,0.57
2023-12-02T11:54:23.106Z,0.48
2023-12-02T11:55:21.086Z,0.50
2023-12-02T11:56:13.076Z,0.44
2023-12-02T11:57:19.130Z,0.41
2023-12-02T11:58:19.072Z,0.45
2023-12-02T11:59:17.085Z,0.51
2023-12-02T12:00:15.132Z,0.45
2023-12-02T12:01:19.074Z,0.52
2023-12-02T12:02:21.088Z,0.53
2023-12-02T12:03:19.118Z,0.54
2023-12-02T12:04:19.083Z,0.64
2023-12-02T12:05:19.095Z,0.70
2023-12-02T12:06:21.139Z,0.69
2023-12-02T12:07:19.068Z,0.73
2023-12-02T12:08:22.333Z,0.75
2023-12-02T12:09:19.125Z,0.76
2023-12-02T12:10:20.072Z,0.75
2023-12-02T12:11:16.089Z,0.72
2023-12-02T12:12:11.101Z,0.76
2023-12-02T12:13:12.073Z,0.72
2023-12-02T12:14:11.070Z,0.73
2023-12-02T12:15:11.093Z,0.69
2023-12-02T12:16:11.071Z,0.72
2023-12-02T12:17:11.071Z,0.73
2023-12-02T12:18:11.152Z,0.75
2023-12-02T12:19:11.152Z,0.75
2023-12-02T12:20:18.071Z,0.74
2023-12-02T12:21:11.112Z,0.73
2023-12-02T12:22:11.070Z,0.70
2023-12-02T12:23:11.073Z,0.71
2023-12-02T12:24:11.115Z,0.70
2023-12-02T12:25:11.074Z,0.76
2023-12-02T12:26:11.069Z,0.73
2023-12-02T12:27:11.122Z,0.71
2023-12-02T12:28:11.130Z,0.74
2023-12-02T12:29:11.067Z,0.71
2023-12-02T12:30:11.101Z,0.76
2023-12-02T12:31:11.077Z,0.80
2023-12-02T12:32:12.076Z,0.81
2023-12-02T12:33:11.182Z,0.81
2023-12-02T12:34:13.324Z,0.82
2023-12-02T12:35:13.072Z,0.86
2023-12-02T12:36:11.149Z,0.89
2023-12-02T12:37:15.068Z,0.93
2023-12-02T12:38:11.084Z,0.92
2023-12-02T12:39:11.120Z,0.88
2023-12-02T12:40:11.069Z,0.91
2023-12-02T12:41:11.097Z,0.97
2023-12-02T12:42:11.116Z,1.00
2023-12-02T12:43:11.063Z,0.96
2023-12-02T12:44:11.069Z,0.95
2023-12-02T12:45:11.145Z,0.94
2023-12-02T12:46:12.065Z,0.91
2023-12-02T12:47:11.094Z,0.90
2023-12-02T12:48:11.256Z,0.84
2023-12-02T12:49:11.138Z,0.86
2023-12-02T12:50:11.130Z,0.86
2023-12-02T12:51:11.112Z,0.84
2023-12-02T12:52:15.062Z,0.83
2023-12-02T12:53:13.107Z,0.81
2023-12-02T12:54:12.140Z,0.79
2023-12-02T12:55:11.069Z,0.78
2023-12-02T12:56:14.061Z,0.79
2023-12-02T12:57:13.129Z,0.82
2023-12-02T12:58:14.086Z,0.80
2023-12-02T12:59:15.065Z,0.81
2023-12-02T13:00:11.096Z,0.79
2023-12-02T13:01:11.074Z,0.79
2023-12-02T13:02:19.068Z,0.79
2023-12-02T13:03:19.106Z,0.80
2023-12-02T13:04:19.075Z,0.77
2023-12-02T13:05:15.092Z,0.80
2023-12-02T13:06:20.195Z,0.78